Walnut Ridge, Arkansas
Current Conditions -  °F | °C
As of 8:15 AM on Wednesday 28 Jan 2015 (Local Time) from KARG Reporting Station
Clear Clear  
Wind Chill: 30°   Ceiling: Unl
Heat Index: 34°   Visibility: 2mi
Dew Point: 28°   Wind: 5mph
Humidity: 81%   Direction: 100°E
Pressure: 30.29"   Gusts: NA
Location:  36.07°N, 90.96°W
Report Text: KARG 281415Z AUTO 10004KT 2SM CLR 01/M02 A3029 RMK AO1
Loading
Personal Weather Stations






























Interactive Weather Map New forecast layout! Learn more

10-Day Weather Forecast

Advertisements
Track Severe Weather on mobile